createdAt,value
2022-11-13T00:00:14.398Z,142.15
2022-11-13T00:02:41.779Z,171.25
2022-11-13T00:05:09.486Z,78.57
2022-11-13T00:07:37.169Z,64.70
2022-11-13T00:10:04.810Z,19.10
2022-11-13T00:12:32.090Z,38.53
2022-11-13T00:14:59.449Z,31.45
2022-11-13T00:17:26.921Z,21.20
2022-11-13T00:19:54.257Z,179.10
2022-11-13T00:22:21.783Z,91.28
2022-11-13T00:24:49.120Z,36.20
2022-11-13T00:27:16.576Z,20.35
2022-11-13T00:29:44.351Z,35.58
2022-11-13T00:32:11.662Z,53.72
2022-11-13T00:34:47.594Z,134.35
2022-11-13T00:37:16.261Z,67.07
2022-11-13T00:39:44.081Z,14.90
2022-11-13T00:42:11.529Z,32.33
2022-11-13T00:44:39.217Z,26.45
2022-11-13T00:47:07.122Z,31.98
2022-11-13T00:49:34.864Z,18.70
2022-11-13T00:52:04.050Z,22.98
2022-11-13T00:54:31.460Z,13.20
2022-11-13T00:56:59.152Z,13.52
2022-11-13T00:59:26.621Z,49.80
2022-11-13T01:01:53.993Z,20.02
2022-11-13T01:04:21.682Z,14.50
2022-11-13T01:06:49.194Z,34.13
2022-11-13T01:09:16.912Z,34.97
2022-11-13T01:11:44.385Z,29.98
2022-11-13T01:14:11.759Z,44.10
2022-11-13T01:16:39.255Z,21.95
2022-11-13T01:19:07.005Z,31.33
2022-11-13T01:21:34.498Z,14.23
2022-11-13T01:24:02.145Z,14.35
2022-11-13T01:26:30.492Z,61.72
2022-11-13T01:28:59.214Z,13.63
2022-11-13T01:31:28.395Z,55.38
2022-11-13T01:33:56.035Z,38.10
2022-11-13T01:36:27.529Z,31.20
2022-11-13T01:38:55.214Z,19.98
2022-11-13T01:41:27.136Z,17.58
2022-11-13T01:43:55.470Z,36.33
2022-11-13T01:46:26.147Z,19.55
2022-11-13T01:48:59.894Z,43.40
2022-11-13T01:51:30.679Z,23.58
2022-11-13T01:53:59.126Z,20.58
2022-11-13T01:56:26.877Z,66.75
2022-11-13T01:58:57.659Z,82.45
2022-11-13T02:01:25.052Z,28.05
2022-11-13T02:03:52.520Z,18.38
2022-11-13T02:06:21.799Z,16.80
2022-11-13T02:08:50.507Z,123.78
2022-11-13T02:11:18.387Z,71.40
2022-11-13T02:13:46.321Z,92.85
2022-11-13T02:16:14.661Z,65.32
2022-11-13T02:18:42.245Z,132.55
2022-11-13T02:21:18.504Z,76.55
2022-11-13T02:23:49.853Z,38.75
2022-11-13T02:26:18.223Z,168.63
2022-11-13T02:28:46.100Z,232.45
2022-11-13T02:31:15.174Z,219.63
2022-11-13T02:33:42.563Z,259.10
2022-11-13T02:36:10.610Z,172.57
2022-11-13T02:38:38.593Z,118.80
2022-11-13T02:41:06.229Z,135.60
2022-11-13T02:43:33.632Z,174.95
2022-11-13T02:46:01.338Z,112.38
2022-11-13T02:48:28.911Z,167.27
2022-11-13T02:50:56.763Z,86.90
2022-11-13T02:53:24.234Z,134.18
2022-11-13T02:55:51.749Z,103.15
2022-11-13T02:58:19.415Z,88.53
2022-11-13T03:00:47.151Z,77.55
2022-11-13T03:03:14.627Z,18.85
2022-11-13T03:05:42.079Z,17.55
2022-11-13T03:08:09.420Z,26.80
2022-11-13T03:10:37.492Z,22.52
2022-11-13T03:13:04.975Z,23.90
2022-11-13T03:15:32.558Z,29.58
2022-11-13T03:18:03.489Z,50.67
2022-11-13T03:20:31.043Z,29.75
2022-11-13T03:22:58.380Z,11.50
2022-11-13T03:25:25.816Z,69.45
2022-11-13T03:27:53.127Z,18.70
2022-11-13T03:30:21.211Z,51.10
2022-11-13T03:32:48.665Z,41.50
2022-11-13T03:35:16.195Z,29.83
2022-11-13T03:37:43.908Z,37.13
2022-11-13T03:40:11.806Z,20.60
2022-11-13T03:42:39.494Z,68.53
2022-11-13T03:45:07.505Z,116.10
2022-11-13T03:47:34.832Z,64.50
2022-11-13T03:50:02.543Z,68.07
2022-11-13T03:52:29.837Z,135.55
2022-11-13T03:54:57.563Z,58.97
2022-11-13T03:57:24.799Z,53.38
2022-11-13T03:59:52.464Z,190.75
2022-11-13T04:02:19.965Z,197.90
2022-11-13T04:04:47.458Z,64.25
2022-11-13T04:07:14.929Z,66.30
2022-11-13T04:09:42.703Z,135.30
2022-11-13T04:12:10.379Z,38.05
2022-11-13T04:14:37.858Z,101.65
2022-11-13T04:17:05.561Z,75.10
2022-11-13T04:19:33.010Z,34.15
2022-11-13T04:22:00.582Z,70.57
2022-11-13T04:24:28.245Z,45.92
2022-11-13T04:26:55.999Z,98.75
2022-11-13T04:29:23.573Z,73.63
2022-11-13T04:31:51.123Z,75.50
2022-11-13T04:34:18.477Z,93.00
2022-11-13T04:36:45.947Z,133.63
2022-11-13T04:39:13.413Z,105.32
2022-11-13T04:41:59.494Z,88.07
2022-11-13T04:44:26.841Z,107.70
2022-11-13T04:46:54.278Z,28.83
2022-11-13T04:49:22.001Z,97.00
2022-11-13T04:51:49.359Z,49.63
2022-11-13T04:54:17.172Z,75.93
2022-11-13T04:56:44.666Z,74.40
2022-11-13T04:59:12.406Z,53.22
2022-11-13T05:01:39.864Z,81.55
2022-11-13T05:04:07.609Z,68.57
2022-11-13T05:06:35.052Z,142.13
2022-11-13T05:09:02.772Z,75.57
2022-11-13T05:11:30.218Z,44.25
2022-11-13T05:14:03.043Z,43.08
2022-11-13T05:16:31.038Z,48.42
2022-11-13T05:18:59.024Z,42.00
2022-11-13T05:21:26.780Z,46.17
2022-11-13T05:23:54.083Z,21.83
2022-11-13T05:26:21.428Z,29.80
2022-11-13T05:28:48.863Z,15.10
2022-11-13T05:31:17.171Z,9.30
2022-11-13T05:33:44.757Z,21.42
2022-11-13T05:36:13.589Z,25.83
2022-11-13T05:38:41.575Z,62.08
2022-11-13T05:41:14.395Z,30.52
2022-11-13T05:43:42.208Z,48.70
2022-11-13T05:46:13.865Z,8.70
2022-11-13T05:48:42.199Z,9.93
2022-11-13T05:51:15.446Z,16.75
2022-11-13T05:53:42.853Z,10.07
2022-11-13T05:56:18.147Z,10.98
2022-11-13T05:58:46.093Z,8.98
2022-11-13T06:01:15.596Z,10.68
2022-11-13T06:03:43.738Z,14.23
2022-11-13T06:06:12.802Z,10.25
2022-11-13T06:08:40.603Z,8.35
2022-11-13T06:11:15.292Z,10.77
2022-11-13T06:13:42.935Z,17.67
2022-11-13T06:16:12.249Z,55.13
2022-11-13T06:18:40.678Z,35.90
2022-11-13T06:21:09.635Z,24.45
2022-11-13T06:23:38.297Z,59.95
2022-11-13T06:26:16.372Z,9.90
2022-11-13T06:28:44.708Z,19.67
2022-11-13T06:31:11.988Z,9.00
2022-11-13T06:33:39.889Z,20.80
2022-11-13T06:36:08.392Z,39.45
2022-11-13T06:38:36.889Z,11.18
2022-11-13T06:41:06.726Z,12.35
2022-11-13T06:43:34.288Z,20.38
2022-11-13T06:46:05.202Z,15.85
2022-11-13T06:48:32.888Z,15.40
2022-11-13T06:51:03.882Z,12.88
2022-11-13T06:53:31.890Z,10.15
2022-11-13T06:55:59.716Z,12.15
2022-11-13T06:58:27.791Z,9.80
2022-11-13T07:00:55.620Z,11.25
2022-11-13T07:03:24.306Z,8.15
2022-11-13T07:05:52.053Z,9.13
2022-11-13T07:08:20.089Z,11.95
2022-11-13T07:10:57.748Z,9.05
2022-11-13T07:13:26.260Z,7.80
2022-11-13T07:15:53.650Z,10.52
2022-11-13T07:18:24.233Z,7.72
2022-11-13T07:20:51.764Z,8.52
2022-11-13T07:23:19.226Z,10.68
2022-11-13T07:25:46.931Z,8.02
2022-11-13T07:28:14.390Z,9.90
2022-11-13T07:30:42.115Z,6.65
2022-11-13T07:33:09.574Z,11.23
2022-11-13T07:35:37.147Z,8.68
2022-11-13T07:38:04.845Z,6.60
2022-11-13T07:40:32.543Z,12.38
2022-11-13T07:43:03.857Z,9.52
2022-11-13T07:45:31.831Z,8.85
2022-11-13T07:48:00.217Z,9.10
2022-11-13T07:50:31.808Z,8.30
2022-11-13T07:52:59.928Z,7.60
2022-11-13T07:55:27.800Z,6.43
2022-11-13T07:57:59.216Z,5.90
2022-11-13T08:00:27.602Z,6.13
2022-11-13T08:02:55.074Z,6.57
2022-11-13T08:05:23.202Z,7.53
2022-11-13T08:07:51.670Z,8.68
2022-11-13T08:10:20.010Z,7.53
2022-11-13T08:12:47.662Z,7.20
2022-11-13T08:15:15.244Z,7.18
2022-11-13T08:17:42.927Z,7.63
2022-11-13T08:20:10.638Z,7.10
2022-11-13T08:22:38.147Z,5.88
2022-11-13T08:25:05.963Z,8.15
2022-11-13T08:27:33.487Z,7.07
2022-11-13T08:30:00.823Z,7.30
2022-11-13T08:32:28.630Z,8.20
2022-11-13T08:34:58.120Z,9.18
2022-11-13T08:37:25.970Z,7.90
2022-11-13T08:39:53.247Z,8.27
2022-11-13T08:42:20.734Z,8.70
2022-11-13T08:44:48.069Z,12.57
2022-11-13T08:47:15.513Z,9.88
2022-11-13T08:49:43.185Z,9.70
2022-11-13T08:52:10.630Z,7.85
2022-11-13T08:54:38.602Z,8.77
2022-11-13T08:57:06.313Z,10.10
2022-11-13T08:59:33.710Z,7.07
2022-11-13T09:02:01.042Z,8.15
2022-11-13T09:04:28.363Z,6.28
2022-11-13T09:06:56.225Z,7.32
2022-11-13T09:09:23.674Z,7.35
2022-11-13T09:11:51.531Z,7.65
2022-11-13T09:14:18.903Z,8.15
2022-11-13T09:16:46.474Z,8.77
2022-11-13T09:19:14.198Z,10.20
2022-11-13T09:21:41.614Z,8.40
2022-11-13T09:24:09.257Z,8.82
2022-11-13T09:26:37.131Z,10.13
2022-11-13T09:29:04.702Z,8.52
2022-11-13T09:31:32.364Z,6.68
2022-11-13T09:34:00.103Z,5.45
2022-11-13T09:36:27.803Z,6.28
2022-11-13T09:38:55.262Z,5.75
2022-11-13T09:41:25.608Z,5.72
2022-11-13T09:44:00.040Z,5.28
2022-11-13T09:46:39.654Z,6.90
2022-11-13T09:49:10.420Z,6.53
2022-11-13T09:51:39.259Z,6.50
2022-11-13T09:54:08.382Z,5.43
2022-11-13T09:56:39.104Z,7.15
2022-11-13T09:59:26.165Z,6.07
2022-11-13T10:02:04.411Z,11.15
2022-11-13T10:04:48.894Z,6.20
2022-11-13T10:07:24.868Z,4.72
2022-11-13T10:09:52.695Z,7.68
2022-11-13T10:12:20.529Z,14.93
2022-11-13T10:14:49.687Z,6.32
2022-11-13T10:17:17.086Z,5.88
2022-11-13T10:19:50.954Z,6.10
2022-11-13T10:22:35.221Z,6.55
2022-11-13T10:25:11.041Z,4.07
2022-11-13T10:27:39.415Z,5.28
2022-11-13T10:30:14.109Z,6.97
2022-11-13T10:32:42.522Z,9.88
2022-11-13T10:35:29.068Z,9.35
2022-11-13T10:38:07.529Z,8.70
2022-11-13T10:40:37.508Z,6.45
2022-11-13T10:43:18.243Z,9.57
2022-11-13T10:46:02.915Z,7.07
2022-11-13T10:48:34.649Z,7.40
2022-11-13T10:51:03.461Z,6.88
2022-11-13T10:53:38.866Z,6.50
2022-11-13T10:56:23.117Z,5.72
2022-11-13T10:59:10.845Z,6.82
2022-11-13T11:01:38.659Z,6.75
2022-11-13T11:04:07.113Z,6.40
2022-11-13T11:09:27.538Z,7.05
2022-11-13T11:12:17.562Z,5.45
2022-11-13T11:14:51.452Z,7.47
2022-11-13T11:17:20.666Z,6.28
2022-11-13T11:19:50.780Z,6.13
2022-11-13T11:22:21.038Z,6.15
2022-11-13T11:24:56.526Z,5.82
2022-11-13T11:27:29.300Z,6.47
2022-11-13T11:30:02.047Z,8.40
2022-11-13T11:32:40.092Z,5.50
2022-11-13T11:35:13.912Z,6.30
2022-11-13T11:37:47.663Z,6.80
2022-11-13T11:40:24.491Z,5.97
2022-11-13T11:43:00.152Z,6.18
2022-11-13T11:45:30.431Z,5.10
2022-11-13T11:47:59.307Z,7.45
2022-11-13T11:50:39.367Z,8.02
2022-11-13T11:53:13.384Z,7.72
2022-11-13T11:55:46.908Z,6.85
2022-11-13T11:58:17.657Z,9.17
2022-11-13T12:00:52.589Z,6.18
2022-11-13T12:03:39.069Z,5.38
2022-11-13T12:06:09.838Z,7.82
2022-11-13T12:08:47.000Z,7.85
2022-11-13T12:11:26.810Z,7.85
2022-11-13T12:14:04.250Z,8.00
2022-11-13T12:16:50.786Z,6.70
2022-11-13T12:19:33.491Z,6.47
2022-11-13T12:22:07.509Z,5.47
2022-11-13T12:24:54.337Z,8.85
2022-11-13T12:27:37.576Z,6.40
2022-11-13T12:30:14.358Z,6.90
2022-11-13T12:32:42.164Z,9.27
2022-11-13T12:35:15.557Z,8.10
2022-11-13T12:37:54.049Z,7.40
2022-11-13T12:40:28.658Z,8.18
2022-11-13T12:43:14.466Z,5.90
2022-11-13T12:45:53.318Z,7.22
2022-11-13T12:48:23.020Z,8.05
2022-11-13T12:51:01.488Z,5.60
2022-11-13T12:53:31.521Z,9.73
2022-11-13T12:56:03.054Z,6.97
2022-11-13T12:58:34.411Z,5.82
2022-11-13T13:01:15.998Z,6.75
2022-11-13T13:04:02.236Z,8.23
2022-11-13T13:06:29.786Z,7.70
2022-11-13T13:09:16.167Z,7.40
2022-11-13T13:11:52.497Z,8.32
2022-11-13T13:14:22.954Z,5.40
2022-11-13T13:16:50.448Z,7.38
2022-11-13T13:19:29.117Z,8.88
2022-11-13T13:21:56.796Z,9.38
2022-11-13T13:24:27.252Z,8.45
2022-11-13T13:26:54.996Z,5.95
2022-11-13T13:29:24.670Z,6.63
2022-11-13T13:32:10.061Z,7.40
2022-11-13T13:34:51.397Z,8.02
2022-11-13T13:37:31.216Z,6.10
2022-11-13T13:39:58.888Z,9.02
2022-11-13T13:42:26.276Z,6.07
2022-11-13T13:44:59.933Z,6.82
2022-11-13T13:47:39.235Z,6.55
2022-11-13T13:50:08.494Z,6.75
2022-11-13T13:52:37.126Z,6.47
2022-11-13T13:55:05.573Z,5.07
2022-11-13T13:57:33.026Z,5.82
2022-11-13T14:00:00.599Z,7.32
2022-11-13T14:02:28.115Z,5.82
2022-11-13T14:04:56.188Z,6.53
2022-11-13T14:07:25.794Z,6.40
2022-11-13T14:10:06.796Z,5.95
2022-11-13T14:12:34.170Z,6.45
2022-11-13T14:15:04.486Z,6.53
2022-11-13T14:17:32.589Z,6.60
2022-11-13T14:20:01.577Z,7.70
2022-11-13T14:22:29.249Z,6.93
2022-11-13T14:25:01.484Z,7.30
2022-11-13T14:27:31.409Z,9.80
2022-11-13T14:30:03.390Z,5.88
2022-11-13T14:32:44.216Z,7.13
2022-11-13T14:35:21.955Z,5.13
2022-11-13T14:37:49.445Z,8.52
2022-11-13T14:40:23.051Z,6.63
2022-11-13T14:42:53.470Z,8.48
2022-11-13T14:45:31.279Z,7.00
2022-11-13T14:48:03.861Z,5.85
2022-11-13T14:50:31.261Z,6.63
2022-11-13T14:53:00.308Z,6.00
2022-11-13T14:55:32.563Z,5.47
2022-11-13T14:58:00.116Z,5.60
2022-11-13T15:00:37.570Z,6.85
2022-11-13T15:03:06.140Z,4.75
2022-11-13T15:05:33.689Z,7.20
2022-11-13T15:08:01.756Z,6.50
2022-11-13T15:10:30.429Z,6.80
2022-11-13T15:12:58.259Z,10.13
2022-11-13T15:15:29.254Z,11.98
2022-11-13T15:17:57.152Z,5.50
2022-11-13T15:20:26.562Z,7.40
2022-11-13T15:22:54.399Z,6.43
2022-11-13T15:25:23.096Z,6.95
2022-11-13T15:27:51.017Z,4.70
2022-11-13T15:30:19.988Z,4.95
2022-11-13T15:32:49.247Z,8.43
2022-11-13T15:35:20.401Z,5.43
2022-11-13T15:37:48.261Z,6.15
2022-11-13T15:40:16.070Z,5.55
2022-11-13T15:42:44.103Z,5.68
2022-11-13T15:45:16.061Z,8.18
2022-11-13T15:47:43.948Z,5.25
2022-11-13T15:50:14.419Z,6.75
2022-11-13T15:52:44.610Z,6.28
2022-11-13T15:55:25.671Z,6.68
2022-11-13T15:57:53.588Z,6.07
2022-11-13T16:00:25.451Z,7.10
2022-11-13T16:02:57.160Z,5.78
2022-11-13T16:05:26.034Z,7.97
2022-11-13T16:07:54.776Z,6.50
2022-11-13T16:10:23.020Z,16.23
2022-11-13T16:12:50.498Z,32.20
2022-11-13T16:15:18.754Z,50.80
2022-11-13T16:17:48.257Z,36.95
2022-11-13T16:20:17.207Z,30.52
2022-11-13T16:22:45.077Z,21.13
2022-11-13T16:25:14.316Z,14.15
2022-11-13T16:27:41.720Z,11.75
2022-11-13T16:30:28.909Z,9.07
2022-11-13T16:32:56.937Z,7.82
2022-11-13T16:35:24.867Z,8.93
2022-11-13T16:37:52.657Z,11.43
2022-11-13T16:40:25.833Z,12.02
2022-11-13T16:42:53.595Z,11.20
2022-11-13T16:45:21.905Z,11.23
2022-11-13T16:47:51.145Z,8.23
2022-11-13T16:50:20.258Z,9.88
2022-11-13T16:52:48.070Z,8.55
2022-11-13T16:55:15.649Z,8.32
2022-11-13T16:57:43.406Z,6.82
2022-11-13T17:00:14.415Z,6.38
2022-11-13T17:02:42.026Z,5.80
2022-11-13T17:05:19.435Z,6.85
2022-11-13T17:07:47.215Z,9.77
2022-11-13T17:10:30.812Z,15.13
2022-11-13T17:12:59.295Z,8.68
2022-11-13T17:15:26.839Z,6.45
2022-11-13T17:17:57.314Z,10.18
2022-11-13T17:20:25.105Z,7.95
2022-11-13T17:22:52.876Z,8.50
2022-11-13T17:25:20.875Z,8.07
2022-11-13T17:27:48.476Z,6.32
2022-11-13T17:30:16.176Z,6.82
2022-11-13T17:32:44.338Z,10.20
2022-11-13T17:35:15.005Z,8.63
2022-11-13T17:37:42.706Z,14.15
2022-11-13T17:40:10.966Z,14.77
2022-11-13T17:42:38.676Z,21.13
2022-11-13T17:45:06.436Z,29.23
2022-11-13T17:47:35.066Z,24.05
2022-11-13T17:50:07.401Z,19.67
2022-11-13T17:52:35.582Z,15.77
2022-11-13T17:55:06.438Z,25.48
2022-11-13T17:57:34.496Z,12.95
2022-11-13T18:00:02.239Z,8.95
2022-11-13T18:02:30.925Z,7.30
2022-11-13T18:05:01.590Z,16.67
2022-11-13T18:07:29.830Z,9.13
2022-11-13T18:09:58.640Z,6.82
2022-11-13T18:12:26.369Z,15.55
2022-11-13T18:14:53.960Z,14.82
2022-11-13T18:17:25.710Z,13.15
2022-11-13T18:19:57.251Z,10.40
2022-11-13T18:22:29.716Z,11.45
2022-11-13T18:24:57.268Z,15.85
2022-11-13T18:27:25.066Z,15.90
2022-11-13T18:29:52.980Z,15.07
2022-11-13T18:32:20.668Z,13.43
2022-11-13T18:34:48.207Z,14.27
2022-11-13T18:37:16.287Z,18.27
2022-11-13T18:39:44.097Z,19.02
2022-11-13T18:42:11.718Z,23.27
2022-11-13T18:44:39.129Z,25.45
2022-11-13T18:47:06.837Z,30.92
2022-11-13T18:49:34.219Z,26.98
2022-11-13T18:52:01.811Z,20.15
2022-11-13T18:54:29.527Z,19.98
2022-11-13T18:56:57.110Z,16.52
2022-11-13T18:59:25.497Z,23.30
2022-11-13T19:01:53.127Z,22.92
2022-11-13T19:04:23.559Z,24.42
2022-11-13T19:06:52.034Z,24.10
2022-11-13T19:09:19.839Z,28.85
2022-11-13T19:11:47.624Z,33.72
2022-11-13T19:14:16.317Z,36.25
2022-11-13T19:16:44.084Z,39.13
2022-11-13T19:19:16.377Z,34.20
2022-11-13T19:21:44.092Z,28.92
2022-11-13T19:24:12.487Z,25.17
2022-11-13T19:26:41.079Z,23.98
2022-11-13T19:29:08.656Z,24.55
2022-11-13T19:31:36.353Z,24.73
2022-11-13T19:34:06.257Z,25.00
2022-11-13T19:36:34.587Z,22.40
2022-11-13T19:39:02.448Z,24.45
2022-11-13T19:41:30.795Z,21.52
2022-11-13T19:44:00.219Z,21.50
2022-11-13T19:46:32.278Z,18.52
2022-11-13T19:49:00.021Z,19.35
2022-11-13T19:51:28.021Z,15.63
2022-11-13T19:53:56.705Z,19.40
2022-11-13T19:56:24.849Z,21.35
2022-11-13T19:58:53.017Z,23.90
2022-11-13T20:01:24.866Z,19.00
2022-11-13T20:03:56.680Z,17.80
2022-11-13T20:06:24.391Z,20.05
2022-11-13T20:08:52.161Z,17.10
2022-11-13T20:11:19.728Z,19.40
2022-11-13T20:13:47.461Z,18.15
2022-11-13T20:16:16.006Z,17.13
2022-11-13T20:18:43.893Z,17.50
2022-11-13T20:21:11.631Z,15.95
2022-11-13T20:23:39.429Z,16.15
2022-11-13T20:26:08.940Z,16.40
2022-11-13T20:28:36.757Z,18.67
2022-11-13T20:31:08.698Z,17.30
2022-11-13T20:33:36.247Z,14.50
2022-11-13T20:36:04.438Z,19.05
2022-11-13T20:38:32.450Z,16.48
2022-11-13T20:41:04.635Z,17.80
2022-11-13T20:43:32.480Z,17.45
2022-11-13T20:46:04.596Z,17.60
2022-11-13T20:48:32.525Z,18.63
2022-11-13T20:51:06.078Z,16.30
2022-11-13T20:53:33.757Z,18.73
2022-11-13T20:56:01.347Z,19.20
2022-11-13T20:58:29.405Z,24.35
2022-11-13T21:01:07.385Z,20.92
2022-11-13T21:03:40.046Z,20.50
2022-11-13T21:06:09.608Z,24.60
2022-11-13T21:08:37.490Z,20.88
2022-11-13T21:11:06.497Z,17.65
2022-11-13T21:13:34.287Z,17.50
2022-11-13T21:16:06.014Z,20.70
2022-11-13T21:18:33.830Z,16.17
2022-11-13T21:21:21.486Z,17.60
2022-11-13T21:23:49.824Z,17.45
2022-11-13T21:26:17.415Z,17.23
2022-11-13T21:28:45.214Z,17.25
2022-11-13T21:31:17.295Z,16.95
2022-11-13T21:33:45.647Z,17.75
2022-11-13T21:36:15.271Z,19.45
2022-11-13T21:38:43.811Z,17.13
2022-11-13T21:41:21.771Z,15.52
2022-11-13T21:43:49.627Z,21.30
2022-11-13T21:46:17.732Z,17.33
2022-11-13T21:48:45.449Z,15.82
2022-11-13T21:51:14.688Z,16.73
2022-11-13T21:53:43.425Z,18.48
2022-11-13T21:56:15.411Z,17.23
2022-11-13T21:58:43.726Z,18.67
2022-11-13T22:01:12.647Z,20.42
2022-11-13T22:03:40.675Z,20.15
2022-11-13T22:06:25.333Z,22.15
2022-11-13T22:08:57.456Z,21.92
2022-11-13T22:11:26.639Z,20.42
2022-11-13T22:13:54.700Z,22.88
2022-11-13T22:16:22.628Z,19.80
2022-11-13T22:18:53.691Z,22.63
2022-11-13T22:21:21.526Z,17.38
2022-11-13T22:23:49.367Z,18.05
2022-11-13T22:26:17.837Z,18.27
2022-11-13T22:28:45.993Z,22.50
2022-11-13T22:31:17.741Z,22.30
2022-11-13T22:33:49.602Z,22.67
2022-11-13T22:36:23.417Z,20.02
2022-11-13T22:38:51.109Z,21.95
2022-11-13T22:41:23.859Z,15.88
2022-11-13T22:44:02.267Z,18.23
2022-11-13T22:46:30.646Z,16.27
2022-11-13T22:49:00.040Z,17.45
2022-11-13T22:51:28.927Z,15.95
2022-11-13T22:53:58.166Z,19.10
2022-11-13T22:56:26.768Z,23.30
2022-11-13T22:58:54.809Z,21.55
2022-11-13T23:01:23.566Z,21.55
2022-11-13T23:03:51.586Z,19.67
2022-11-13T23:06:27.186Z,18.42
2022-11-13T23:08:54.939Z,26.23
2022-11-13T23:11:28.405Z,18.55
2022-11-13T23:13:57.454Z,24.85
2022-11-13T23:16:26.220Z,20.95
2022-11-13T23:18:55.210Z,25.83
2022-11-13T23:21:23.599Z,22.00
2022-11-13T23:23:51.248Z,20.38
2022-11-13T23:26:19.619Z,22.48
2022-11-13T23:28:47.359Z,22.48
2022-11-13T23:31:14.890Z,22.10
2022-11-13T23:33:43.508Z,21.35
2022-11-13T23:36:13.130Z,18.45
2022-11-13T23:38:41.392Z,18.33
2022-11-13T23:41:10.547Z,19.92
2022-11-13T23:44:07.203Z,20.23
2022-11-13T23:46:25.750Z,15.45
2022-11-13T23:48:53.312Z,15.68
2022-11-13T23:51:21.147Z,15.70
2022-11-13T23:53:48.976Z,15.52
2022-11-13T23:56:16.718Z,15.95
2022-11-13T23:58:44.349Z,19.75
